createdAt,value
2023-03-01T00:02:14.386Z,47.73
2023-03-01T00:05:45.391Z,51.06
2023-03-01T00:09:10.819Z,55.30
2023-03-01T00:12:37.529Z,58.47
2023-03-01T00:16:04.863Z,58.12
2023-03-01T00:19:28.795Z,57.67
2023-03-01T00:22:54.308Z,57.04
2023-03-01T00:26:20.584Z,56.30
2023-03-01T00:29:46.349Z,56.15
2023-03-01T00:33:12.130Z,56.22
2023-03-01T00:36:38.835Z,59.08
2023-03-01T00:40:07.246Z,70.02
2023-03-01T00:43:37.657Z,68.06
2023-03-01T00:46:55.919Z,63.01
2023-03-01T00:50:22.226Z,58.91
2023-03-01T00:53:48.333Z,55.86
2023-03-01T00:57:14.145Z,53.04
2023-03-01T01:00:39.771Z,50.32
2023-03-01T01:04:06.935Z,48.76
2023-03-01T01:07:32.687Z,47.23
2023-03-01T01:10:58.506Z,46.26
2023-03-01T01:14:24.225Z,50.61
2023-03-01T01:17:50.025Z,55.02
2023-03-01T01:21:16.780Z,57.41
2023-03-01T01:24:42.459Z,57.85
2023-03-01T01:28:08.401Z,57.60
2023-03-01T01:31:35.287Z,57.77
2023-03-01T01:35:01.255Z,59.42
2023-03-01T01:38:26.931Z,59.78
2023-03-01T01:41:52.900Z,63.97
2023-03-01T01:45:30.534Z,71.65
2023-03-01T01:48:58.791Z,65.87
2023-03-01T01:52:26.520Z,60.75
2023-03-01T01:55:55.321Z,55.73
2023-03-01T01:59:25.575Z,52.25
2023-03-01T02:02:53.427Z,49.79
2023-03-01T02:06:21.797Z,48.00
2023-03-01T02:09:49.046Z,46.56
2023-03-01T02:13:14.734Z,45.18
2023-03-01T02:16:40.835Z,43.28
2023-03-01T02:20:14.476Z,46.14
2023-03-01T02:23:40.585Z,49.85
2023-03-01T02:27:06.521Z,52.21
2023-03-01T02:30:33.267Z,53.55
2023-03-01T02:33:59.954Z,54.76
2023-03-01T02:37:26.860Z,57.77
2023-03-01T02:40:53.251Z,59.93
2023-03-01T02:44:19.528Z,59.81
2023-03-01T02:47:45.572Z,70.82
2023-03-01T02:51:16.800Z,66.81
2023-03-01T02:54:43.864Z,60.84
2023-03-01T02:58:09.654Z,56.70
2023-03-01T03:01:38.620Z,54.31
2023-03-01T03:05:04.330Z,51.60
2023-03-01T03:08:30.268Z,49.25
2023-03-01T03:11:56.056Z,48.08
2023-03-01T03:15:23.097Z,46.47
2023-03-01T03:18:49.056Z,45.14
2023-03-01T03:22:14.965Z,45.06
2023-03-01T03:25:41.029Z,45.47
2023-03-01T03:29:06.829Z,44.75
2023-03-01T03:32:33.556Z,44.51
2023-03-01T03:35:59.637Z,44.52
2023-03-01T03:39:25.660Z,44.19
2023-03-01T03:42:51.266Z,46.09
2023-03-01T03:46:18.104Z,47.44
2023-03-01T03:49:43.859Z,47.20
2023-03-01T03:53:10.843Z,46.22
2023-03-01T03:56:37.195Z,44.78
2023-03-01T04:00:05.796Z,44.09
2023-03-01T04:03:32.985Z,43.29
2023-03-01T04:06:58.698Z,47.00
2023-03-01T04:10:24.500Z,50.29
2023-03-01T04:13:50.351Z,52.45
2023-03-01T04:17:15.951Z,53.66
2023-03-01T04:20:42.040Z,54.91
2023-03-01T04:24:09.946Z,56.13
2023-03-01T04:27:36.353Z,56.84
2023-03-01T04:31:14.314Z,64.87
2023-03-01T04:34:40.431Z,67.92
2023-03-01T04:38:07.001Z,62.51
2023-03-01T04:41:32.725Z,58.80
2023-03-01T04:44:58.961Z,54.62
2023-03-01T04:48:24.879Z,51.52
2023-03-01T04:51:50.444Z,49.82
2023-03-01T04:55:16.280Z,48.06
2023-03-01T04:58:41.988Z,46.47
2023-03-01T05:02:07.693Z,46.28
2023-03-01T05:05:34.588Z,45.52
2023-03-01T05:09:00.773Z,44.31
2023-03-01T05:12:26.405Z,43.02
2023-03-01T05:15:56.119Z,42.17
2023-03-01T05:19:23.907Z,47.82
2023-03-01T05:22:49.744Z,51.26
2023-03-01T05:26:27.875Z,52.91
2023-03-01T05:29:54.111Z,54.33
2023-03-01T05:33:20.046Z,55.20
2023-03-01T05:36:45.830Z,56.98
2023-03-01T05:40:16.617Z,62.37
2023-03-01T05:43:44.541Z,71.51
2023-03-01T05:47:10.187Z,64.79
2023-03-01T05:50:36.712Z,59.52
2023-03-01T05:54:02.429Z,55.67
2023-03-01T05:57:29.931Z,52.37
2023-03-01T06:00:57.236Z,50.89
2023-03-01T06:04:23.142Z,48.99
2023-03-01T06:07:51.061Z,47.40
2023-03-01T06:11:16.782Z,46.11
2023-03-01T06:14:42.634Z,45.00
2023-03-01T06:18:08.647Z,44.11
2023-03-01T06:21:27.006Z,48.63
2023-03-01T06:24:52.910Z,52.69
2023-03-01T06:28:18.734Z,54.98
2023-03-01T06:31:44.351Z,55.90
2023-03-01T06:35:11.832Z,56.69
2023-03-01T06:38:37.837Z,56.84
2023-03-01T06:41:46.443Z,56.83
2023-03-01T06:45:13.035Z,56.50
2023-03-01T06:48:38.782Z,58.21
2023-03-01T06:52:04.487Z,57.35
2023-03-01T06:55:21.202Z,56.18
2023-03-01T06:58:47.166Z,55.97
2023-03-01T07:01:55.641Z,56.01
2023-03-01T07:05:04.288Z,56.00
2023-03-01T07:08:12.478Z,55.72
2023-03-01T07:11:18.639Z,55.92
2023-03-01T07:14:26.972Z,56.69
2023-03-01T07:17:34.815Z,57.10
2023-03-01T07:21:00.655Z,57.28
2023-03-01T07:24:06.672Z,57.61
2023-03-01T07:27:12.490Z,57.93
2023-03-01T07:30:18.652Z,59.98
2023-03-01T07:33:27.112Z,68.27
2023-03-01T07:36:35.634Z,74.97
2023-03-01T07:39:44.209Z,70.20
2023-03-01T07:42:56.671Z,62.70
2023-03-01T07:46:36.445Z,57.96
2023-03-01T07:50:03.626Z,60.07
2023-03-01T07:53:12.278Z,64.00
2023-03-01T07:56:18.785Z,60.98
2023-03-01T07:59:44.433Z,59.47
2023-03-01T08:03:10.982Z,62.72
2023-03-01T08:06:38.360Z,61.50
2023-03-01T08:10:04.060Z,55.84
2023-03-01T08:13:31.688Z,58.89
2023-03-01T08:16:37.555Z,62.29
2023-03-01T08:20:04.385Z,63.01
2023-03-01T08:23:31.013Z,60.87
2023-03-01T08:26:56.818Z,56.31
2023-03-01T08:30:25.561Z,60.47
2023-03-01T08:33:56.299Z,62.56
2023-03-01T08:37:22.174Z,60.28
2023-03-01T08:40:38.794Z,57.61
2023-03-01T08:44:04.995Z,60.69
2023-03-01T08:47:30.796Z,62.92
2023-03-01T08:50:56.731Z,59.38
2023-03-01T08:54:23.588Z,56.98
2023-03-01T08:57:59.978Z,58.21
2023-03-01T09:01:25.533Z,62.04
2023-03-01T09:04:51.294Z,62.16
2023-03-01T09:08:17.213Z,58.17
2023-03-01T09:11:42.997Z,58.60
2023-03-01T09:15:09.770Z,60.03
2023-03-01T09:18:35.997Z,60.71
2023-03-01T09:22:01.885Z,61.68
2023-03-01T09:25:27.907Z,60.33
2023-03-01T09:28:55.037Z,57.30
2023-03-01T09:32:21.025Z,57.32
2023-03-01T09:35:47.899Z,59.01
2023-03-01T09:39:13.893Z,58.78
2023-03-01T09:42:47.897Z,58.82
2023-03-01T09:46:17.732Z,60.58
2023-03-01T09:50:05.692Z,59.69
2023-03-01T09:53:36.176Z,59.84
2023-03-01T09:57:15.268Z,60.97
2023-03-01T10:00:44.094Z,59.59
2023-03-01T10:04:21.074Z,60.59
2023-03-01T10:07:51.168Z,60.31
2023-03-01T10:11:23.939Z,59.14
2023-03-01T10:14:55.989Z,57.79
2023-03-01T10:18:24.232Z,58.48
2023-03-01T10:21:51.556Z,57.16
2023-03-01T10:25:17.203Z,57.83
2023-03-01T10:28:49.497Z,57.87
2023-03-01T10:32:15.225Z,56.65
2023-03-01T10:35:42.244Z,55.03
2023-03-01T10:39:14.748Z,56.29
2023-03-01T10:42:41.407Z,55.86
2023-03-01T10:46:23.922Z,54.91
2023-03-01T10:50:00.197Z,53.99
2023-03-01T10:53:27.691Z,54.41
2023-03-01T10:56:54.926Z,53.86
2023-03-01T11:00:26.459Z,54.35
2023-03-01T11:04:05.464Z,55.72
2023-03-01T11:07:31.310Z,55.82
2023-03-01T11:11:06.785Z,53.70
2023-03-01T11:14:27.777Z,53.26
2023-03-01T11:18:02.902Z,55.17
2023-03-01T11:21:43.694Z,53.85
2023-03-01T11:25:12.624Z,53.31
2023-03-01T11:28:41.865Z,53.85
2023-03-01T11:32:09.775Z,54.52
2023-03-01T11:35:38.710Z,53.66
2023-03-01T11:39:06.019Z,54.15
2023-03-01T11:42:48.434Z,54.87
2023-03-01T11:46:30.730Z,53.43
2023-03-01T11:50:04.318Z,53.33
2023-03-01T11:53:47.359Z,54.25
2023-03-01T11:57:18.742Z,53.56
2023-03-01T12:00:51.180Z,53.51
2023-03-01T12:04:27.155Z,53.26
2023-03-01T12:07:56.108Z,54.01
2023-03-01T12:11:31.134Z,53.33
2023-03-01T12:15:03.203Z,53.83
2023-03-01T12:18:42.117Z,54.45
2023-03-01T12:22:15.576Z,53.90
2023-03-01T12:25:42.612Z,54.42
2023-03-01T12:29:18.650Z,52.06
2023-03-01T12:32:48.983Z,52.40
2023-03-01T12:36:24.740Z,52.45
2023-03-01T12:39:51.777Z,51.47
2023-03-01T12:43:33.398Z,51.74
2023-03-01T12:47:06.670Z,52.29
2023-03-01T12:50:25.929Z,52.06
2023-03-01T12:53:52.308Z,51.23
2023-03-01T12:57:20.341Z,52.21
2023-03-01T13:00:50.481Z,53.34
2023-03-01T13:04:23.448Z,51.90
2023-03-01T13:07:55.321Z,52.00
2023-03-01T13:11:22.874Z,51.99
2023-03-01T13:14:48.709Z,51.39
2023-03-01T13:18:34.127Z,52.15
2023-03-01T13:21:55.184Z,52.82
2023-03-01T13:25:22.275Z,51.97
2023-03-01T13:28:51.670Z,51.97
2023-03-01T13:32:28.893Z,51.58
2023-03-01T13:36:00.599Z,52.35
2023-03-01T13:39:34.735Z,51.21
2023-03-01T13:43:04.886Z,51.03
2023-03-01T13:46:31.930Z,51.23
2023-03-01T13:49:59.868Z,51.46
2023-03-01T13:53:27.215Z,52.52
2023-03-01T13:56:53.238Z,52.26
2023-03-01T14:00:33.500Z,51.00
2023-03-01T14:03:59.933Z,51.51
2023-03-01T14:07:26.891Z,51.26
2023-03-01T14:11:01.115Z,51.18
2023-03-01T14:14:40.160Z,51.73
2023-03-01T14:18:07.866Z,51.83
2023-03-01T14:21:32.650Z,51.82
2023-03-01T14:25:00.050Z,52.07
2023-03-01T14:28:27.421Z,52.29
2023-03-01T14:31:53.948Z,51.58
2023-03-01T14:35:23.589Z,50.71
2023-03-01T14:38:49.758Z,51.68
2023-03-01T14:42:16.144Z,51.56
2023-03-01T14:45:42.094Z,50.77
2023-03-01T14:49:11.984Z,51.35
2023-03-01T14:52:40.123Z,51.66
2023-03-01T14:56:05.929Z,52.48
2023-03-01T14:59:31.698Z,52.19
2023-03-01T15:02:58.320Z,51.71
2023-03-01T15:06:25.051Z,50.86
2023-03-01T15:09:50.952Z,51.75
2023-03-01T15:13:23.501Z,51.99
2023-03-01T15:16:50.435Z,52.31
2023-03-01T15:20:19.526Z,52.07
2023-03-01T15:23:50.041Z,51.46
2023-03-01T15:27:19.660Z,52.32
2023-03-01T15:30:39.070Z,52.65
2023-03-01T15:34:11.463Z,52.34
2023-03-01T15:37:42.869Z,51.94
2023-03-01T15:41:24.681Z,51.82
2023-03-01T15:44:50.506Z,51.46
2023-03-01T15:48:21.162Z,51.10
2023-03-01T15:51:47.552Z,50.36
2023-03-01T15:55:18.610Z,49.93
2023-03-01T15:58:44.338Z,49.71
2023-03-01T16:02:13.595Z,49.70
2023-03-01T16:05:39.596Z,49.96
2023-03-01T16:09:05.327Z,50.29
2023-03-01T16:12:31.233Z,50.57
2023-03-01T16:15:57.398Z,50.89
2023-03-01T16:19:02.929Z,51.21
2023-03-01T16:22:08.624Z,51.40
2023-03-01T16:25:33.312Z,51.79
2023-03-01T16:28:44.640Z,52.04
2023-03-01T16:31:50.309Z,52.47
2023-03-01T16:34:56.105Z,52.81
2023-03-01T16:38:02.117Z,53.05
2023-03-01T16:41:08.872Z,53.44
2023-03-01T16:44:35.601Z,53.94
2023-03-01T16:48:13.140Z,54.07
2023-03-01T16:51:38.946Z,54.43
2023-03-01T16:55:01.760Z,54.71
2023-03-01T17:02:06.979Z,55.40
2023-03-01T17:05:25.021Z,55.74
2023-03-01T17:08:43.387Z,56.04
2023-03-01T17:11:58.953Z,56.33
2023-03-01T17:15:24.874Z,56.71
2023-03-01T17:18:40.821Z,57.00
2023-03-01T17:22:06.879Z,57.50
2023-03-01T17:25:23.428Z,57.94
2023-03-01T17:28:55.132Z,58.52
2023-03-01T17:32:20.933Z,58.65
2023-03-01T17:35:26.821Z,58.73
2023-03-01T17:38:38.236Z,58.99
2023-03-01T17:42:05.192Z,59.73
2023-03-01T17:45:31.095Z,59.66
2023-03-01T17:48:57.011Z,59.62
2023-03-01T17:52:23.891Z,59.71
2023-03-01T17:55:54.072Z,61.92
2023-03-01T17:59:19.907Z,73.56
2023-03-01T18:02:37.700Z,74.41
2023-03-01T18:05:56.815Z,66.51
2023-03-01T18:09:52.188Z,59.91
2023-03-01T18:13:33.341Z,55.19
2023-03-01T18:16:51.509Z,57.35
2023-03-01T18:19:59.081Z,58.75
2023-03-01T18:23:26.418Z,59.35
2023-03-01T18:26:35.108Z,59.20
2023-03-01T18:29:47.948Z,58.20
2023-03-01T18:33:04.890Z,57.84
2023-03-01T18:36:32.554Z,57.82
2023-03-01T18:39:43.727Z,57.92
2023-03-01T18:42:55.689Z,58.90
2023-03-01T18:46:22.113Z,61.91
2023-03-01T18:49:27.855Z,73.97
2023-03-01T18:52:53.735Z,72.33
2023-03-01T18:56:12.548Z,67.45
2023-03-01T18:59:30.042Z,62.35
2023-03-01T19:02:56.205Z,56.86
2023-03-01T19:06:02.223Z,55.04
2023-03-01T19:09:11.423Z,56.98
2023-03-01T19:12:28.205Z,59.95
2023-03-01T19:15:54.532Z,60.35
2023-03-01T19:19:18.551Z,60.00
2023-03-01T19:22:33.987Z,59.59
2023-03-01T19:25:50.181Z,59.99
2023-03-01T19:28:55.637Z,60.07
2023-03-01T19:32:01.025Z,60.53
2023-03-01T19:35:32.073Z,61.07
2023-03-01T19:38:42.673Z,61.59
2023-03-01T19:41:50.942Z,62.00
2023-03-01T19:44:59.770Z,61.73
2023-03-01T19:48:05.865Z,61.39
2023-03-01T19:51:11.694Z,61.51
2023-03-01T19:54:20.125Z,61.81
2023-03-01T19:57:37.235Z,62.05
2023-03-01T20:00:46.082Z,62.30
2023-03-01T20:04:03.125Z,67.02
2023-03-01T20:07:11.528Z,76.30
2023-03-01T20:10:17.137Z,74.02
2023-03-01T20:13:23.247Z,68.95
2023-03-01T20:16:28.759Z,64.92
2023-03-01T20:19:34.313Z,61.91
2023-03-01T20:22:40.060Z,59.39
2023-03-01T20:25:45.525Z,55.91
2023-03-01T20:28:52.432Z,57.32
2023-03-01T20:32:01.184Z,59.03
2023-03-01T20:35:17.062Z,59.66
2023-03-01T20:38:22.659Z,59.63
2023-03-01T20:41:30.587Z,59.91
2023-03-01T20:44:43.002Z,60.27
2023-03-01T20:47:48.594Z,61.49
2023-03-01T20:50:54.162Z,64.36
2023-03-01T20:53:59.509Z,74.47
2023-03-01T20:57:04.965Z,73.10
2023-03-01T21:00:14.049Z,67.82
2023-03-01T21:03:19.633Z,63.66
2023-03-01T21:06:24.986Z,59.76
2023-03-01T21:09:31.540Z,56.67
2023-03-01T21:12:36.809Z,59.26
2023-03-01T21:15:42.137Z,61.69
2023-03-01T21:18:47.535Z,64.97
2023-03-01T21:21:55.945Z,70.10
2023-03-01T21:25:01.482Z,66.74
2023-03-01T21:28:07.040Z,63.25
2023-03-01T21:31:13.519Z,59.55
2023-03-01T21:34:24.615Z,55.69
2023-03-01T21:37:30.165Z,57.44
2023-03-01T21:40:37.589Z,60.81
2023-03-01T21:43:44.215Z,61.73
2023-03-01T21:46:50.009Z,62.88
2023-03-01T21:49:55.515Z,70.51
2023-03-01T21:53:05.101Z,69.73
2023-03-01T21:56:11.435Z,64.00
2023-03-01T21:59:18.284Z,59.89
2023-03-01T22:02:23.664Z,56.18
2023-03-01T22:05:29.217Z,57.07
2023-03-01T22:08:34.670Z,58.94
2023-03-01T22:11:41.698Z,60.80
2023-03-01T22:14:50.216Z,65.97
2023-03-01T22:17:55.838Z,70.20
2023-03-01T22:21:08.354Z,67.87
2023-03-01T22:24:15.150Z,64.10
2023-03-01T22:27:40.875Z,60.08
2023-03-01T22:30:46.775Z,56.75
2023-03-01T22:33:52.759Z,59.04
2023-03-01T22:36:58.680Z,61.56
2023-03-01T22:40:04.555Z,67.94
2023-03-01T22:43:10.024Z,67.41
2023-03-01T22:46:16.864Z,63.19
2023-03-01T22:49:22.524Z,60.20
2023-03-01T22:52:28.153Z,56.54
2023-03-01T22:55:33.523Z,58.57
2023-03-01T22:58:39.168Z,61.83
2023-03-01T23:01:47.641Z,62.44
2023-03-01T23:04:54.140Z,70.32
2023-03-01T23:08:02.645Z,68.06
2023-03-01T23:11:16.932Z,63.59
2023-03-01T23:14:22.732Z,60.34
2023-03-01T23:17:28.401Z,57.07
2023-03-01T23:20:36.146Z,58.26
2023-03-01T23:23:41.917Z,60.76
2023-03-01T23:26:50.537Z,59.08
2023-03-01T23:29:56.042Z,58.08
2023-03-01T23:33:01.441Z,58.28
2023-03-01T23:36:07.902Z,58.50
2023-03-01T23:39:14.211Z,61.12
2023-03-01T23:42:19.609Z,60.73
2023-03-01T23:45:25.197Z,60.24
2023-03-01T23:48:30.658Z,60.05
2023-03-01T23:51:36.112Z,60.14
2023-03-01T23:54:44.457Z,60.99
2023-03-01T23:57:50.087Z,61.43
